Wetterdaten: Woche 20.07.15 - 26.07.15 (KW30)
Datum Zeit Temp. A. Feuchte A. Luftdruck Regen Wind Richtung Sonnenschein ET UV Solar Taupunkt Windchill Windben Empfang
20.07.2015 00:00 21,1 C 67 % 1010,5 hPa 0,0 l/m 0,4 km/h (0 Bft) W-SW 0,00 h 0,000 mm 0,0 UV-I 0 W/m 14,8 C 21,1 C 1,0 km/h (0 Bft) 0,00 %
20.07.2015 01:00 19,8 C 81 % 1012,5 hPa 2,4 l/m 1,3 km/h (1 Bft) O-SO 0,00 h 0,000 mm 0,0 UV-I 0 W/m 16,3 C 19,8 C 3,0 km/h (1 Bft) 0,00 %
20.07.2015 02:00 18,2 C 94 % 1012,7 hPa 0,3 l/m 0,0 km/h (0 Bft) N 0,00 h 0,000 mm 0,0 UV-I 0 W/m 17,2 C 18,2 C 0,0 km/h (0 Bft) 0,00 %
20.07.2015 03:00 18,1 C 95 % 1012,6 hPa 0,0 l/m 0,0 km/h (0 Bft) N 0,00 h 0,000 mm 0,0 UV-I 0 W/m 17,3 C 18,1 C 0,0 km/h (0 Bft) 0,00 %
20.07.2015 04:00 17,9 C 96 % 1012,7 hPa 0,3 l/m 0,0 km/h (0 Bft) W 0,00 h 0,000 mm 0,0 UV-I 0 W/m 17,3 C 17,9 C 0,0 km/h (0 Bft) 0,00 %
20.07.2015 05:00 17,9 C 96 % 1012,8 hPa 0,0 l/m 0,2 km/h (0 Bft) N 0,00 h 0,000 mm 0,0 UV-I 2 W/m 17,3 C 17,9 C 1,3 km/h (1 Bft) 0,00 %
20.07.2015 06:00 18,1 C 95 % 1013,1 hPa 0,0 l/m 0,3 km/h (0 Bft) N 0,00 h 0,000 mm 0,0 UV-I 23 W/m 17,3 C 18,1 C 2,0 km/h (1 Bft) 0,00 %
20.07.2015 07:00 18,9 C 93 % 1013,3 hPa 0,0 l/m 0,2 km/h (0 Bft) N-NW 0,00 h 0,000 mm 1,0 UV-I 127 W/m 17,7 C 18,9 C 1,0 km/h (0 Bft) 0,00 %
20.07.2015 08:00 20,0 C 88 % 1013,6 hPa 0,0 l/m 2,4 km/h (1 Bft) W-NW 0,17 h 0,000 mm 1,1 UV-I 233 W/m 17,9 C 20,0 C 4,3 km/h (1 Bft) 0,00 %
20.07.2015 09:00 22,0 C 77 % 1013,7 hPa 0,0 l/m 0,5 km/h (0 Bft) SW 0,58 h 0,000 mm 1,6 UV-I 403 W/m 17,7 C 22,0 C 2,0 km/h (1 Bft) 0,00 %
20.07.2015 10:00 23,8 C 68 % 1013,5 hPa 0,0 l/m 1,8 km/h (1 Bft) W-SW 0,67 h 0,000 mm 3,0 UV-I 636 W/m 17,4 C 23,8 C 4,0 km/h (1 Bft) 0,00 %
20.07.2015 11:00 26,9 C 54 % 1013,0 hPa 0,0 l/m 1,2 km/h (1 Bft) N-NW 0,67 h 0,000 mm 3,5 UV-I 584 W/m 16,8 C 26,8 C 3,0 km/h (1 Bft) 0,00 %
20.07.2015 12:00 26,4 C 53 % 1013,0 hPa 0,0 l/m 0,8 km/h (0 Bft) W-NW 0,42 h 0,000 mm 2,3 UV-I 655 W/m 16,0 C 26,4 C 2,3 km/h (1 Bft) 0,00 %
20.07.2015 13:00 27,8 C 48 % 1012,5 hPa 0,0 l/m 0,7 km/h (0 Bft) W-NW 1,00 h 0,000 mm 5,0 UV-I 946 W/m 15,8 C 27,8 C 1,7 km/h (1 Bft) 0,00 %
20.07.2015 14:00 29,3 C 43 % 1011,7 hPa 0,0 l/m 1,0 km/h (0 Bft) N-NO 0,92 h 0,000 mm 5,0 UV-I 957 W/m 15,2 C 29,3 C 2,7 km/h (1 Bft) 0,00 %
20.07.2015 15:00 30,1 C 40 % 1011,0 hPa 0,0 l/m 1,0 km/h (0 Bft) W-SW 0,83 h 0,000 mm 3,1 UV-I 794 W/m 15,1 C 30,1 C 2,3 km/h (1 Bft) 0,00 %
20.07.2015 16:00 30,0 C 39 % 1010,6 hPa 0,0 l/m 0,6 km/h (0 Bft) O-NO 0,92 h 0,000 mm 2,7 UV-I 813 W/m 14,6 C 30,0 C 2,7 km/h (1 Bft) 0,00 %
20.07.2015 17:00 30,3 C 39 % 1010,2 hPa 0,0 l/m 0,8 km/h (0 Bft) NW 1,00 h 0,000 mm 1,4 UV-I 734 W/m 14,6 C 30,3 C 2,0 km/h (1 Bft) 0,00 %
20.07.2015 18:00 30,7 C 38 % 1010,0 hPa 0,0 l/m 0,1 km/h (0 Bft) N 1,00 h 0,000 mm 1,0 UV-I 439 W/m 14,6 C 30,7 C 0,7 km/h (0 Bft) 0,00 %
20.07.2015 19:00 29,8 C 41 % 1010,0 hPa 0,0 l/m 0,0 km/h (0 Bft) N 0,17 h 0,000 mm 1,0 UV-I 43 W/m 15,1 C 29,8 C 0,0 km/h (0 Bft) 0,00 %
20.07.2015 20:00 26,9 C 51 % 1010,8 hPa 0,0 l/m 0,0 km/h (0 Bft) N 0,00 h 0,000 mm 0,0 UV-I 3 W/m 15,6 C 26,9 C 0,0 km/h (0 Bft) 0,00 %
20.07.2015 21:00 23,3 C 66 % 1012,0 hPa 0,0 l/m 0,0 km/h (0 Bft) N 0,00 h 0,000 mm 0,0 UV-I 0 W/m 16,5 C 23,3 C 0,0 km/h (0 Bft) 0,00 %
20.07.2015 22:00 21,2 C 74 % 1012,6 hPa 0,0 l/m 0,0 km/h (0 Bft) N 0,00 h 0,000 mm 0,0 UV-I 0 W/m 16,4 C 21,2 C 0,0 km/h (0 Bft) 0,00 %
20.07.2015 23:00 19,8 C 81 % 1013,0 hPa 0,0 l/m 0,0 km/h (0 Bft) N 0,00 h 0,000 mm 0,0 UV-I 0 W/m 16,4 C 19,8 C 0,0 km/h (0 Bft) 0,00 %
21.07.2015 00:00 18,9 C 85 % 1013,3 hPa 0,0 l/m 0,0 km/h (0 Bft) N 0,00 h 0,000 mm 0,0 UV-I 0 W/m 16,3 C 18,9 C 0,0 km/h (0 Bft) 0,00 %
21.07.2015 01:00 18,8 C 87 % 1013,4 hPa 0,0 l/m 0,0 km/h (0 Bft) N 0,00 h 0,000 mm 0,0 UV-I 0 W/m 16,6 C 18,8 C 0,0 km/h (0 Bft) 0,00 %
21.07.2015 02:00 18,4 C 88 % 1013,5 hPa 0,0 l/m 0,0 km/h (0 Bft) N 0,00 h 0,000 mm 0,0 UV-I 0 W/m 16,3 C 18,4 C 0,0 km/h (0 Bft) 0,00 %
21.07.2015 03:00 17,3 C 92 % 1013,8 hPa 0,0 l/m 0,0 km/h (0 Bft) N 0,00 h 0,000 mm 0,0 UV-I 0 W/m 15,9 C 17,3 C 0,0 km/h (0 Bft) 0,00 %
21.07.2015 04:00 16,7 C 92 % 1013,9 hPa 0,0 l/m 0,0 km/h (0 Bft) N 0,00 h 0,000 mm 0,0 UV-I 0 W/m 15,3 C 16,7 C 0,0 km/h (0 Bft) 0,00 %
21.07.2015 05:00 16,4 C 92 % 1014,0 hPa 0,0 l/m 0,0 km/h (0 Bft) N 0,00 h 0,000 mm 0,0 UV-I 11 W/m 15,1 C 16,4 C 0,0 km/h (0 Bft) 0,00 %
21.07.2015 06:00 19,1 C 83 % 1013,3 hPa 0,0 l/m 0,0 km/h (0 Bft) N 0,92 h 0,000 mm 1,0 UV-I 244 W/m 16,0 C 19,1 C 0,0 km/h (0 Bft) 0,00 %
21.07.2015 07:00 24,3 C 63 % 1012,9 hPa 0,0 l/m 0,0 km/h (0 Bft) N 1,00 h 0,000 mm 1,0 UV-I 396 W/m 16,7 C 24,3 C 0,0 km/h (0 Bft) 0,00 %
21.07.2015 08:00 27,3 C 53 % 1013,0 hPa 0,0 l/m 0,4 km/h (0 Bft) O-SO 1,00 h 0,000 mm 1,4 UV-I 460 W/m 16,8 C 27,3 C 0,7 km/h (0 Bft) 0,00 %
21.07.2015 09:00 28,8 C 48 % 1012,8 hPa 0,0 l/m 0,1 km/h (0 Bft) O 1,00 h 0,000 mm 2,1 UV-I 587 W/m 16,7 C 28,8 C 0,7 km/h (0 Bft) 0,00 %
21.07.2015 10:00 31,0 C 42 % 1012,3 hPa 0,0 l/m 0,7 km/h (0 Bft) O 1,00 h 0,000 mm 3,2 UV-I 729 W/m 16,7 C 31,0 C 2,0 km/h (1 Bft) 0,00 %
21.07.2015 11:00 31,8 C 40 % 1012,0 hPa 0,0 l/m 0,6 km/h (0 Bft) O-SO 1,00 h 0,000 mm 4,6 UV-I 839 W/m 16,4 C 31,8 C 1,7 km/h (1 Bft) 0,00 %
21.07.2015 12:00 32,5 C 38 % 1011,7 hPa 0,0 l/m 0,3 km/h (0 Bft) NW 0,92 h 0,000 mm 4,7 UV-I 891 W/m 16,1 C 32,5 C 0,7 km/h (0 Bft) 0,00 %
21.07.2015 13:00 32,7 C 36 % 1011,4 hPa 0,0 l/m 2,0 km/h (1 Bft) W-NW 0,83 h 0,000 mm 4,6 UV-I 890 W/m 15,6 C 32,7 C 4,3 km/h (1 Bft) 0,00 %
21.07.2015 14:00 33,1 C 36 % 1011,0 hPa 0,0 l/m 1,5 km/h (1 Bft) SW 0,92 h 0,000 mm 3,7 UV-I 992 W/m 15,9 C 33,1 C 3,0 km/h (1 Bft) 0,00 %
21.07.2015 15:00 33,9 C 33 % 1010,5 hPa 0,0 l/m 0,6 km/h (0 Bft) N 1,00 h 0,000 mm 3,7 UV-I 1029 W/m 15,3 C 33,9 C 1,7 km/h (1 Bft) 0,00 %
21.07.2015 16:00 34,3 C 32 % 1010,1 hPa 0,0 l/m 2,2 km/h (1 Bft) NW 0,83 h 0,000 mm 2,6 UV-I 760 W/m 15,0 C 34,3 C 4,0 km/h (1 Bft) 0,00 %
21.07.2015 17:00 33,0 C 34 % 1010,0 hPa 0,0 l/m 1,7 km/h (1 Bft) W-SW 1,00 h 0,000 mm 1,1 UV-I 770 W/m 15,2 C 33,0 C 3,0 km/h (1 Bft) 0,00 %
21.07.2015 18:00 33,9 C 32 % 1009,6 hPa 0,0 l/m 1,5 km/h (1 Bft) W 1,00 h 0,000 mm 1,0 UV-I 546 W/m 14,9 C 33,9 C 2,6 km/h (1 Bft) 0,00 %
21.07.2015 19:00 33,7 C 34 % 1009,6 hPa 0,0 l/m 0,0 km/h (0 Bft) N 0,42 h 0,000 mm 1,0 UV-I 123 W/m 15,5 C 33,7 C 0,0 km/h (0 Bft) 0,00 %
21.07.2015 20:00 30,4 C 40 % 1010,2 hPa 0,0 l/m 0,0 km/h (0 Bft) N 0,00 h 0,000 mm 0,0 UV-I 4 W/m 15,3 C 30,4 C 0,0 km/h (0 Bft) 0,00 %
21.07.2015 21:00 25,3 C 57 % 1011,4 hPa 0,0 l/m 0,0 km/h (0 Bft) N 0,00 h 0,000 mm 0,0 UV-I 0 W/m 16,0 C 25,3 C 0,0 km/h (0 Bft) 0,00 %
21.07.2015 22:00 22,3 C 68 % 1012,3 hPa 0,0 l/m 0,0 km/h (0 Bft) N 0,00 h 0,000 mm 0,0 UV-I 0 W/m 16,0 C 22,3 C 0,0 km/h (0 Bft) 0,00 %
21.07.2015 23:00 21,8 C 69 % 1012,7 hPa 0,0 l/m 0,0 km/h (0 Bft) N 0,00 h 0,000 mm 0,0 UV-I 0 W/m 15,9 C 21,8 C 0,0 km/h (0 Bft) 0,00 %
22.07.2015 00:00 21,1 C 72 % 1013,0 hPa 0,0 l/m 0,0 km/h (0 Bft) N 0,00 h 0,000 mm 0,0 UV-I 0 W/m 15,7 C 21,1 C 0,0 km/h (0 Bft) 0,00 %
22.07.2015 01:00 19,7 C 77 % 1013,1 hPa 0,0 l/m 0,0 km/h (0 Bft) N 0,00 h 0,000 mm 0,0 UV-I 0 W/m 15,6 C 19,7 C 0,0 km/h (0 Bft) 0,00 %
22.07.2015 02:00 18,7 C 82 % 1013,4 hPa 0,0 l/m 0,0 km/h (0 Bft) N 0,00 h 0,000 mm 0,0 UV-I 0 W/m 15,6 C 18,7 C 0,0 km/h (0 Bft) 0,00 %
22.07.2015 03:00 17,7 C 85 % 1013,8 hPa 0,0 l/m 0,0 km/h (0 Bft) N 0,00 h 0,000 mm 0,0 UV-I 0 W/m 15,2 C 17,7 C 0,0 km/h (0 Bft) 0,00 %
22.07.2015 04:00 17,0 C 88 % 1013,9 hPa 0,0 l/m 0,0 km/h (0 Bft) N 0,00 h 0,000 mm 0,0 UV-I 0 W/m 14,9 C 17,0 C 0,0 km/h (0 Bft) 0,00 %
22.07.2015 05:00 16,6 C 89 % 1013,9 hPa 0,0 l/m 0,0 km/h (0 Bft) N 0,08 h 0,000 mm 0,0 UV-I 17 W/m 14,7 C 16,6 C 0,0 km/h (0 Bft) 0,00 %
22.07.2015 06:00 20,1 C 76 % 1013,4 hPa 0,0 l/m 0,0 km/h (0 Bft) N 1,00 h 0,000 mm 1,0 UV-I 229 W/m 15,5 C 20,1 C 0,0 km/h (0 Bft) 0,00 %
22.07.2015 07:00 26,3 C 55 % 1012,5 hPa 0,0 l/m 0,0 km/h (0 Bft) N 1,00 h 0,000 mm 1,0 UV-I 394 W/m 16,4 C 26,3 C 0,0 km/h (0 Bft) 0,00 %
22.07.2015 08:00 28,2 C 47 % 1012,3 hPa 0,0 l/m 0,4 km/h (0 Bft) O 1,00 h 0,000 mm 1,4 UV-I 448 W/m 15,9 C 28,2 C 2,0 km/h (1 Bft) 0,00 %
22.07.2015 09:00 29,7 C 45 % 1011,7 hPa 0,0 l/m 1,0 km/h (0 Bft) O 1,00 h 0,000 mm 2,1 UV-I 565 W/m 16,3 C 29,7 C 2,3 km/h (1 Bft) 0,00 %
22.07.2015 10:00 31,1 C 42 % 1011,1 hPa 0,0 l/m 2,2 km/h (1 Bft) O 1,00 h 0,000 mm 3,2 UV-I 703 W/m 16,7 C 31,1 C 4,0 km/h (1 Bft) 0,00 %
22.07.2015 11:00 32,5 C 41 % 1010,3 hPa 0,0 l/m 2,7 km/h (1 Bft) O-NO 1,00 h 0,000 mm 4,6 UV-I 808 W/m 17,3 C 32,5 C 5,6 km/h (1 Bft) 0,00 %
22.07.2015 12:00 33,3 C 35 % 1009,5 hPa 0,0 l/m 2,9 km/h (1 Bft) O 1,00 h 0,000 mm 5,5 UV-I 880 W/m 15,5 C 33,3 C 5,3 km/h (1 Bft) 0,00 %
22.07.2015 13:00 34,1 C 31 % 1008,8 hPa 0,0 l/m 4,0 km/h (1 Bft) O-NO 1,00 h 0,000 mm 5,2 UV-I 937 W/m 14,4 C 34,1 C 6,6 km/h (2 Bft) 0,00 %
22.07.2015 14:00 34,9 C 28 % 1007,6 hPa 0,0 l/m 2,4 km/h (1 Bft) O-SO 1,00 h 0,000 mm 4,7 UV-I 974 W/m 13,8 C 34,9 C 4,6 km/h (1 Bft) 0,00 %
22.07.2015 15:00 35,5 C 27 % 1006,7 hPa 0,0 l/m 1,5 km/h (1 Bft) O-NO 1,00 h 0,000 mm 3,6 UV-I 951 W/m 13,7 C 35,5 C 4,3 km/h (1 Bft) 0,00 %
22.07.2015 16:00 35,5 C 29 % 1005,7 hPa 0,0 l/m 3,2 km/h (1 Bft) O 1,00 h 0,000 mm 2,5 UV-I 864 W/m 14,9 C 35,5 C 5,3 km/h (1 Bft) 0,00 %
22.07.2015 17:00 35,2 C 30 % 1005,2 hPa 0,0 l/m 3,1 km/h (1 Bft) O-NO 1,00 h 0,000 mm 1,3 UV-I 686 W/m 14,8 C 35,2 C 5,0 km/h (1 Bft) 0,00 %
22.07.2015 18:00 34,5 C 31 % 1004,7 hPa 0,0 l/m 3,5 km/h (1 Bft) O 0,83 h 0,000 mm 1,0 UV-I 306 W/m 14,6 C 34,5 C 6,3 km/h (2 Bft) 0,00 %
22.07.2015 19:00 33,1 C 34 % 1004,7 hPa 0,0 l/m 0,4 km/h (0 Bft) O 0,00 h 0,000 mm 1,0 UV-I 27 W/m 15,1 C 33,1 C 1,7 km/h (1 Bft) 0,00 %
22.07.2015 20:00 30,2 C 41 % 1004,9 hPa 0,0 l/m 0,5 km/h (0 Bft) O-SO 0,00 h 0,000 mm 0,0 UV-I 7 W/m 15,4 C 30,2 C 1,3 km/h (1 Bft) 0,00 %
22.07.2015 21:00 28,0 C 49 % 1006,3 hPa 0,0 l/m 2,5 km/h (1 Bft) W-NW 0,00 h 0,000 mm 0,0 UV-I 0 W/m 16,3 C 28,0 C 4,3 km/h (1 Bft) 0,00 %
22.07.2015 22:00 26,0 C 54 % 1007,3 hPa 0,0 l/m 2,2 km/h (1 Bft) W-SW 0,00 h 0,000 mm 0,0 UV-I 0 W/m 15,9 C 26,0 C 5,0 km/h (1 Bft) 0,00 %
22.07.2015 23:00 25,2 C 55 % 1008,1 hPa 0,0 l/m 3,7 km/h (1 Bft) W-SW 0,00 h 0,000 mm 0,0 UV-I 0 W/m 15,4 C 25,1 C 6,5 km/h (2 Bft) 0,00 %
23.07.2015 00:00 22,4 C 73 % 1009,6 hPa 0,0 l/m 4,5 km/h (1 Bft) N-NO 0,00 h 0,000 mm 0,0 UV-I 0 W/m 17,4 C 22,2 C 7,9 km/h (2 Bft) 0,00 %
23.07.2015 01:00 21,6 C 74 % 1010,2 hPa 0,0 l/m 1,9 km/h (1 Bft) N-NW 0,00 h 0,000 mm 0,0 UV-I 0 W/m 16,7 C 21,6 C 4,3 km/h (1 Bft) 0,00 %
23.07.2015 02:00 21,8 C 72 % 1010,5 hPa 0,0 l/m 1,9 km/h (1 Bft) W 0,00 h 0,000 mm 0,0 UV-I 0 W/m 16,5 C 21,7 C 4,3 km/h (1 Bft) 0,00 %
23.07.2015 03:00 21,5 C 73 % 1010,4 hPa 0,0 l/m 0,8 km/h (0 Bft) W-NW 0,00 h 0,000 mm 0,0 UV-I 0 W/m 16,4 C 21,5 C 2,0 km/h (1 Bft) 0,00 %
23.07.2015 04:00 20,9 C 76 % 1010,1 hPa 0,0 l/m 0,0 km/h (0 Bft) N 0,00 h 0,000 mm 0,0 UV-I 0 W/m 16,3 C 20,9 C 0,3 km/h (0 Bft) 0,00 %
23.07.2015 05:00 20,2 C 77 % 1010,3 hPa 0,0 l/m 1,5 km/h (1 Bft) W-SW 0,00 h 0,000 mm 0,0 UV-I 6 W/m 16,1 C 20,1 C 3,3 km/h (1 Bft) 0,00 %
23.07.2015 06:00 20,8 C 76 % 1010,9 hPa 0,0 l/m 1,4 km/h (1 Bft) N-NW 0,25 h 0,000 mm 1,0 UV-I 69 W/m 16,5 C 20,8 C 4,0 km/h (1 Bft) 0,00 %
23.07.2015 07:00 22,7 C 68 % 1010,8 hPa 0,0 l/m 3,4 km/h (1 Bft) W-SW 0,83 h 0,000 mm 1,0 UV-I 282 W/m 16,5 C 22,5 C 6,0 km/h (2 Bft) 0,00 %
23.07.2015 08:00 24,2 C 62 % 1011,1 hPa 0,0 l/m 5,3 km/h (1 Bft) W 0,92 h 0,000 mm 1,4 UV-I 412 W/m 16,3 C 23,9 C 7,9 km/h (2 Bft) 0,00 %
23.07.2015 09:00 27,1 C 52 % 1011,2 hPa 0,0 l/m 2,0 km/h (1 Bft) N-NO 0,75 h 0,000 mm 2,0 UV-I 500 W/m 16,4 C 27,1 C 4,3 km/h (1 Bft) 0,00 %
23.07.2015 10:00 28,0 C 52 % 1011,4 hPa 0,0 l/m 3,1 km/h (1 Bft) O-NO 1,00 h 0,000 mm 2,9 UV-I 699 W/m 17,0 C 27,9 C 5,6 km/h (1 Bft) 0,00 %
23.07.2015 11:00 28,9 C 49 % 1011,2 hPa 0,0 l/m 3,8 km/h (1 Bft) N 0,92 h 0,000 mm 3,5 UV-I 759 W/m 17,1 C 28,9 C 6,6 km/h (2 Bft) 0,00 %
23.07.2015 12:00 28,9 C 49 % 1010,6 hPa 0,0 l/m 2,8 km/h (1 Bft) SW 0,92 h 0,000 mm 3,5 UV-I 804 W/m 16,9 C 28,8 C 6,0 km/h (2 Bft) 0,00 %
23.07.2015 13:00 29,8 C 46 % 1010,1 hPa 0,0 l/m 2,5 km/h (1 Bft) W 0,92 h 0,000 mm 4,3 UV-I 871 W/m 16,8 C 29,8 C 5,3 km/h (1 Bft) 0,00 %
23.07.2015 14:00 30,5 C 42 % 1009,6 hPa 0,0 l/m 1,9 km/h (1 Bft) N-NO 1,00 h 0,000 mm 3,8 UV-I 904 W/m 16,2 C 30,5 C 3,6 km/h (1 Bft) 0,00 %
23.07.2015 15:00 30,1 C 42 % 1009,5 hPa 0,0 l/m 2,4 km/h (1 Bft) N-NO 1,00 h 0,000 mm 3,5 UV-I 905 W/m 15,9 C 30,1 C 4,3 km/h (1 Bft) 0,00 %
23.07.2015 16:00 30,6 C 40 % 1009,0 hPa 0,0 l/m 1,5 km/h (1 Bft) W-NW 1,00 h 0,000 mm 2,5 UV-I 841 W/m 15,5 C 30,6 C 3,3 km/h (1 Bft) 0,00 %
23.07.2015 17:00 30,3 C 41 % 1008,9 hPa 0,0 l/m 1,6 km/h (1 Bft) W 0,42 h 0,000 mm 1,2 UV-I 373 W/m 15,7 C 30,3 C 3,3 km/h (1 Bft) 0,00 %
23.07.2015 18:00 28,4 C 49 % 1008,9 hPa 0,0 l/m 0,6 km/h (0 Bft) N 0,92 h 0,000 mm 1,0 UV-I 451 W/m 16,5 C 28,4 C 1,3 km/h (1 Bft) 0,00 %
23.07.2015 19:00 28,4 C 48 % 1008,8 hPa 0,0 l/m 0,1 km/h (0 Bft) N 0,67 h 0,000 mm 1,0 UV-I 124 W/m 16,3 C 28,4 C 0,3 km/h (0 Bft) 0,00 %
23.07.2015 20:00 25,9 C 59 % 1009,9 hPa 0,0 l/m 0,4 km/h (0 Bft) W-NW 0,00 h 0,000 mm 0,0 UV-I 6 W/m 17,2 C 25,9 C 0,7 km/h (0 Bft) 0,00 %
23.07.2015 21:00 24,3 C 66 % 1011,0 hPa 0,0 l/m 0,4 km/h (0 Bft) W-SW 0,00 h 0,000 mm 0,0 UV-I 0 W/m 17,6 C 24,3 C 1,3 km/h (1 Bft) 0,00 %
23.07.2015 22:00 22,9 C 71 % 1011,4 hPa 0,0 l/m 0,2 km/h (0 Bft) NW 0,00 h 0,000 mm 0,0 UV-I 0 W/m 17,4 C 22,9 C 1,0 km/h (0 Bft) 0,00 %
23.07.2015 23:00 22,3 C 72 % 1011,5 hPa 0,0 l/m 0,3 km/h (0 Bft) W-SW 0,00 h 0,000 mm 0,0 UV-I 0 W/m 17,0 C 22,3 C 1,0 km/h (0 Bft) 0,00 %
24.07.2015 00:00 21,6 C 71 % 1011,5 hPa 0,0 l/m 0,0 km/h (0 Bft) N 0,00 h 0,000 mm 0,0 UV-I 0 W/m 16,2 C 21,6 C 0,0 km/h (0 Bft) 0,00 %
24.07.2015 01:00 21,0 C 73 % 1011,6 hPa 0,0 l/m 0,0 km/h (0 Bft) N 0,00 h 0,000 mm 0,0 UV-I 0 W/m 16,0 C 21,0 C 0,0 km/h (0 Bft) 0,00 %
24.07.2015 02:00 20,5 C 75 % 1011,1 hPa 0,0 l/m 0,1 km/h (0 Bft) N 0,00 h 0,000 mm 0,0 UV-I 0 W/m 15,9 C 20,5 C 0,3 km/h (0 Bft) 0,00 %
24.07.2015 03:00 20,3 C 74 % 1010,9 hPa 0,0 l/m 0,0 km/h (0 Bft) N 0,00 h 0,000 mm 0,0 UV-I 0 W/m 15,5 C 20,3 C 0,0 km/h (0 Bft) 0,00 %
24.07.2015 04:00 20,4 C 75 % 1011,0 hPa 0,0 l/m 0,0 km/h (0 Bft) N 0,00 h 0,000 mm 0,0 UV-I 0 W/m 15,8 C 20,4 C 0,0 km/h (0 Bft) 0,00 %
24.07.2015 05:00 19,8 C 80 % 1010,7 hPa 0,0 l/m 0,0 km/h (0 Bft) N 0,00 h 0,000 mm 0,0 UV-I 0 W/m 16,2 C 19,8 C 0,0 km/h (0 Bft) 0,00 %
24.07.2015 06:00 20,8 C 75 % 1010,4 hPa 0,0 l/m 0,2 km/h (0 Bft) NO 0,25 h 0,000 mm 1,0 UV-I 67 W/m 16,3 C 20,8 C 1,0 km/h (0 Bft) 0,00 %
24.07.2015 07:00 21,0 C 76 % 1010,2 hPa 0,0 l/m 1,1 km/h (1 Bft) SO 0,50 h 0,000 mm 1,0 UV-I 175 W/m 16,6 C 21,0 C 3,3 km/h (1 Bft) 0,00 %
24.07.2015 08:00 23,4 C 63 % 1010,0 hPa 0,0 l/m 3,6 km/h (1 Bft) NO 0,92 h 0,000 mm 1,5 UV-I 401 W/m 15,8 C 23,3 C 6,3 km/h (2 Bft) 0,00 %
24.07.2015 09:00 25,8 C 55 % 1009,3 hPa 0,0 l/m 2,6 km/h (1 Bft) N-NO 1,00 h 0,000 mm 2,0 UV-I 539 W/m 16,1 C 25,8 C 4,6 km/h (1 Bft) 0,00 %
24.07.2015 10:00 27,6 C 51 % 1008,5 hPa 0,0 l/m 2,6 km/h (1 Bft) O-NO 0,83 h 0,000 mm 2,5 UV-I 562 W/m 16,3 C 27,5 C 4,6 km/h (1 Bft) 0,00 %
24.07.2015 11:00 27,4 C 51 % 1007,9 hPa 0,0 l/m 2,1 km/h (1 Bft) O-SO 1,00 h 0,000 mm 3,5 UV-I 654 W/m 16,4 C 27,4 C 4,6 km/h (1 Bft) 0,00 %
24.07.2015 12:00 28,7 C 48 % 1007,0 hPa 0,0 l/m 3,1 km/h (1 Bft) O-NO 1,00 h 0,000 mm 3,9 UV-I 753 W/m 16,4 C 28,6 C 5,6 km/h (1 Bft) 0,00 %
24.07.2015 13:00 30,3 C 43 % 1005,8 hPa 0,0 l/m 2,9 km/h (1 Bft) O 1,00 h 0,000 mm 4,4 UV-I 825 W/m 16,3 C 30,3 C 5,0 km/h (1 Bft) 0,00 %
24.07.2015 14:00 31,6 C 41 % 1004,8 hPa 0,0 l/m 2,4 km/h (1 Bft) NO 1,00 h 0,000 mm 3,5 UV-I 800 W/m 16,6 C 31,6 C 5,0 km/h (1 Bft) 0,00 %
24.07.2015 15:00 32,6 C 39 % 1003,8 hPa 0,0 l/m 2,4 km/h (1 Bft) O 1,00 h 0,000 mm 3,0 UV-I 689 W/m 17,0 C 32,6 C 4,3 km/h (1 Bft) 0,00 %
24.07.2015 16:00 32,9 C 38 % 1003,0 hPa 0,0 l/m 2,6 km/h (1 Bft) O-NO 0,50 h 0,000 mm 1,9 UV-I 489 W/m 16,8 C 32,9 C 4,3 km/h (1 Bft) 0,00 %
24.07.2015 17:00 31,7 C 39 % 1002,4 hPa 0,0 l/m 1,9 km/h (1 Bft) O 0,25 h 0,000 mm 1,0 UV-I 265 W/m 16,1 C 31,7 C 3,6 km/h (1 Bft) 0,00 %
24.07.2015 18:00 30,2 C 43 % 1002,1 hPa 0,0 l/m 1,7 km/h (1 Bft) O-NO 0,00 h 0,000 mm 1,0 UV-I 48 W/m 16,0 C 30,2 C 3,0 km/h (1 Bft) 0,00 %
24.07.2015 19:00 27,7 C 52 % 1002,4 hPa 0,0 l/m 0,0 km/h (0 Bft) N 0,00 h 0,000 mm 0,0 UV-I 28 W/m 17,0 C 27,7 C 0,0 km/h (0 Bft) 0,00 %
24.07.2015 20:00 25,4 C 63 % 1002,4 hPa 0,0 l/m 0,0 km/h (0 Bft) N 0,00 h 0,000 mm 0,0 UV-I 0 W/m 17,8 C 25,4 C 0,0 km/h (0 Bft) 0,00 %
24.07.2015 21:00 23,5 C 72 % 1002,8 hPa 0,0 l/m 0,0 km/h (0 Bft) N 0,00 h 0,000 mm 0,0 UV-I 0 W/m 18,1 C 23,5 C 0,0 km/h (0 Bft) 0,00 %
24.07.2015 22:00 22,0 C 73 % 1003,0 hPa 0,0 l/m 0,0 km/h (0 Bft) N 0,00 h 0,000 mm 0,0 UV-I 0 W/m 16,9 C 22,0 C 0,0 km/h (0 Bft) 0,00 %
24.07.2015 23:00 21,8 C 74 % 1003,0 hPa 0,0 l/m 0,0 km/h (0 Bft) N 0,00 h 0,000 mm 0,0 UV-I 0 W/m 16,9 C 21,8 C 0,0 km/h (0 Bft) 0,00 %
25.07.2015 00:00 21,3 C 76 % 1002,9 hPa 0,0 l/m 0,0 km/h (0 Bft) N 0,00 h 0,000 mm 0,0 UV-I 0 W/m 16,8 C 21,3 C 0,0 km/h (0 Bft) 0,00 %
25.07.2015 01:00 20,8 C 78 % 1002,7 hPa 0,0 l/m 0,0 km/h (0 Bft) N 0,00 h 0,000 mm 0,0 UV-I 0 W/m 16,8 C 20,8 C 0,0 km/h (0 Bft) 0,00 %
25.07.2015 02:00 20,9 C 78 % 1002,0 hPa 0,0 l/m 0,0 km/h (0 Bft) N 0,00 h 0,000 mm 0,0 UV-I 0 W/m 16,8 C 20,9 C 0,0 km/h (0 Bft) 0,00 %
25.07.2015 03:00 20,8 C 80 % 1002,7 hPa 0,0 l/m 2,2 km/h (1 Bft) W-SW 0,00 h 0,000 mm 0,0 UV-I 0 W/m 17,2 C 20,6 C 4,0 km/h (1 Bft) 0,00 %
25.07.2015 04:00 20,5 C 79 % 1003,8 hPa 0,0 l/m 0,3 km/h (0 Bft) O-NO 0,00 h 0,000 mm 0,0 UV-I 0 W/m 16,8 C 20,5 C 0,7 km/h (0 Bft) 0,00 %
25.07.2015 05:00 20,3 C 69 % 1003,9 hPa 0,0 l/m 0,9 km/h (0 Bft) W-SW 0,00 h 0,000 mm 0,0 UV-I 0 W/m 14,5 C 20,3 C 2,0 km/h (1 Bft) 0,00 %
25.07.2015 06:00 20,5 C 66 % 1004,0 hPa 0,0 l/m 0,8 km/h (0 Bft) W-SW 0,00 h 0,000 mm 0,0 UV-I 21 W/m 14,0 C 20,5 C 2,0 km/h (1 Bft) 0,00 %
25.07.2015 07:00 21,3 C 62 % 1004,6 hPa 0,0 l/m 0,8 km/h (0 Bft) N-NW 0,00 h 0,000 mm 1,0 UV-I 112 W/m 13,7 C 21,3 C 2,7 km/h (1 Bft) 0,00 %
25.07.2015 08:00 21,9 C 61 % 1005,4 hPa 0,0 l/m 3,1 km/h (1 Bft) W-SW 0,00 h 0,000 mm 1,0 UV-I 124 W/m 14,0 C 21,9 C 5,3 km/h (1 Bft) 0,00 %
25.07.2015 09:00 22,2 C 61 % 1005,8 hPa 0,0 l/m 1,5 km/h (1 Bft) W-NW 0,00 h 0,000 mm 1,0 UV-I 239 W/m 14,4 C 22,2 C 3,3 km/h (1 Bft) 0,00 %
25.07.2015 10:00 23,8 C 56 % 1005,4 hPa 0,0 l/m 0,8 km/h (0 Bft) O-NO 0,00 h 0,000 mm 1,1 UV-I 295 W/m 14,4 C 23,8 C 2,3 km/h (1 Bft) 0,00 %
25.07.2015 11:00 24,8 C 51 % 1005,1 hPa 0,0 l/m 1,3 km/h (1 Bft) N-NO 0,00 h 0,000 mm 1,8 UV-I 375 W/m 13,9 C 24,8 C 3,0 km/h (1 Bft) 0,00 %
25.07.2015 12:00 25,3 C 48 % 1004,9 hPa 0,0 l/m 4,1 km/h (1 Bft) NW 0,25 h 0,000 mm 1,7 UV-I 473 W/m 13,6 C 25,2 C 7,3 km/h (2 Bft) 0,00 %
25.07.2015 13:00 26,5 C 47 % 1004,6 hPa 0,0 l/m 1,1 km/h (1 Bft) W-SW 0,42 h 0,000 mm 2,4 UV-I 557 W/m 14,4 C 26,5 C 3,3 km/h (1 Bft) 0,00 %
25.07.2015 14:00 28,4 C 42 % 1004,1 hPa 0,0 l/m 1,4 km/h (1 Bft) N-NW 0,83 h 0,000 mm 3,7 UV-I 745 W/m 14,2 C 28,4 C 3,3 km/h (1 Bft) 0,00 %
25.07.2015 15:00 28,8 C 41 % 1003,8 hPa 0,0 l/m 2,8 km/h (1 Bft) W-NW 0,50 h 0,000 mm 3,1 UV-I 449 W/m 14,3 C 28,8 C 5,6 km/h (1 Bft) 0,00 %
25.07.2015 16:00 26,4 C 50 % 1004,3 hPa 0,3 l/m 3,7 km/h (1 Bft) W-NW 0,00 h 0,000 mm 1,2 UV-I 57 W/m 14,9 C 26,4 C 6,9 km/h (2 Bft) 0,00 %
25.07.2015 17:00 19,7 C 84 % 1006,7 hPa 1,8 l/m 3,5 km/h (1 Bft) W-SW 0,00 h 0,000 mm 1,0 UV-I 23 W/m 16,9 C 19,5 C 6,6 km/h (2 Bft) 0,00 %
25.07.2015 18:00 17,9 C 93 % 1008,5 hPa 1,2 l/m 1,1 km/h (0 Bft) W-SW 0,00 h 0,000 mm 0,0 UV-I 21 W/m 16,8 C 17,9 C 3,7 km/h (1 Bft) 0,00 %
25.07.2015 19:00 17,1 C 92 % 1010,0 hPa 2,7 l/m 4,1 km/h (1 Bft) W-NW 0,00 h 0,000 mm 0,0 UV-I 2 W/m 15,8 C 17,0 C 7,3 km/h (2 Bft) 0,00 %
25.07.2015 20:00 15,8 C 90 % 1011,2 hPa 0,6 l/m 3,1 km/h (1 Bft) O-NO 0,00 h 0,000 mm 0,0 UV-I 0 W/m 14,2 C 15,6 C 5,9 km/h (2 Bft) 0,00 %
25.07.2015 21:00 15,8 C 85 % 1012,3 hPa 0,0 l/m 2,1 km/h (1 Bft) N 0,00 h 0,000 mm 0,0 UV-I 0 W/m 13,2 C 15,7 C 5,0 km/h (1 Bft) 0,00 %
25.07.2015 22:00 15,6 C 84 % 1013,2 hPa 0,0 l/m 1,0 km/h (0 Bft) NO 0,00 h 0,000 mm 0,0 UV-I 0 W/m 12,8 C 15,6 C 3,6 km/h (1 Bft) 0,00 %
25.07.2015 23:00 15,3 C 84 % 1014,4 hPa 0,0 l/m 1,7 km/h (1 Bft) W-SW 0,00 h 0,000 mm 0,0 UV-I 0 W/m 12,5 C 15,1 C 4,3 km/h (1 Bft) 0,00 %
26.07.2015 00:00 15,3 C 67 % 1015,0 hPa 0,0 l/m 1,7 km/h (1 Bft) W 0,00 h 0,000 mm 0,0 UV-I 0 W/m 9,2 C 15,3 C 4,3 km/h (1 Bft) 0,00 %
26.07.2015 01:00 15,0 C 64 % 1015,6 hPa 0,0 l/m 1,2 km/h (1 Bft) W-SW 0,00 h 0,000 mm 0,0 UV-I 0 W/m 8,2 C 15,0 C 3,0 km/h (1 Bft) 0,00 %
26.07.2015 02:00 14,1 C 65 % 1016,0 hPa 0,0 l/m 3,7 km/h (1 Bft) N-NW 0,00 h 0,000 mm 0,0 UV-I 0 W/m 7,6 C 14,0 C 6,6 km/h (2 Bft) 0,00 %
26.07.2015 03:00 13,1 C 69 % 1016,5 hPa 0,0 l/m 5,4 km/h (1 Bft) W-NW 0,00 h 0,000 mm 0,0 UV-I 0 W/m 7,7 C 12,8 C 7,9 km/h (2 Bft) 0,00 %
26.07.2015 04:00 12,5 C 71 % 1016,9 hPa 0,0 l/m 2,2 km/h (1 Bft) W-NW 0,00 h 0,000 mm 0,0 UV-I 0 W/m 7,5 C 12,4 C 5,0 km/h (1 Bft) 0,00 %
26.07.2015 05:00 11,9 C 72 % 1017,1 hPa 0,0 l/m 3,5 km/h (1 Bft) W-SW 0,08 h 0,000 mm 0,0 UV-I 12 W/m 6,9 C 11,9 C 6,6 km/h (2 Bft) 0,00 %
26.07.2015 06:00 12,7 C 68 % 1017,0 hPa 0,0 l/m 3,0 km/h (1 Bft) W-SW 1,00 h 0,000 mm 1,0 UV-I 246 W/m 6,8 C 12,6 C 5,6 km/h (1 Bft) 0,00 %
26.07.2015 07:00 15,0 C 61 % 1016,9 hPa 0,0 l/m 1,1 km/h (0 Bft) SW 1,00 h 0,000 mm 1,0 UV-I 365 W/m 7,4 C 15,0 C 4,0 km/h (1 Bft) 0,00 %
26.07.2015 08:00 16,8 C 53 % 1016,6 hPa 0,0 l/m 3,1 km/h (1 Bft) W-NW 1,00 h 0,000 mm 1,2 UV-I 434 W/m 7,2 C 16,8 C 5,3 km/h (1 Bft) 0,00 %
26.07.2015 09:00 18,6 C 48 % 1015,9 hPa 0,0 l/m 1,8 km/h (1 Bft) N-NW 1,00 h 0,000 mm 2,0 UV-I 572 W/m 7,4 C 18,6 C 4,0 km/h (1 Bft) 0,00 %
26.07.2015 10:00 20,1 C 42 % 1014,9 hPa 0,0 l/m 3,6 km/h (1 Bft) NW 1,00 h 0,000 mm 3,1 UV-I 699 W/m 6,9 C 19,9 C 6,0 km/h (2 Bft) 0,00 %
26.07.2015 11:00 21,1 C 39 % 1014,4 hPa 0,0 l/m 2,1 km/h (1 Bft) N-NW 1,00 h 0,000 mm 4,5 UV-I 774 W/m 6,4 C 21,1 C 5,3 km/h (1 Bft) 0,00 %
26.07.2015 12:00 21,4 C 37 % 1013,6 hPa 0,0 l/m 2,1 km/h (1 Bft) O-NO 1,00 h 0,000 mm 5,2 UV-I 836 W/m 6,0 C 21,4 C 4,6 km/h (1 Bft) 0,00 %
26.07.2015 13:00 22,1 C 36 % 1012,7 hPa 0,0 l/m 1,4 km/h (1 Bft) O-SO 1,00 h 0,000 mm 5,0 UV-I 897 W/m 6,3 C 22,1 C 3,3 km/h (1 Bft) 0,00 %
26.07.2015 14:00 23,2 C 33 % 1011,4 hPa 0,0 l/m 1,6 km/h (1 Bft) NW 1,00 h 0,000 mm 4,7 UV-I 914 W/m 6,1 C 23,2 C 3,0 km/h (1 Bft) 0,00 %
26.07.2015 15:00 24,4 C 30 % 1009,7 hPa 0,0 l/m 1,2 km/h (1 Bft) NW 1,00 h 0,000 mm 3,6 UV-I 880 W/m 5,6 C 24,4 C 2,3 km/h (1 Bft) 0,00 %
26.07.2015 16:00 24,1 C 31 % 1008,6 hPa 0,0 l/m 1,8 km/h (1 Bft) NW 1,00 h 0,000 mm 2,6 UV-I 791 W/m 5,8 C 24,1 C 3,6 km/h (1 Bft) 0,00 %
26.07.2015 17:00 23,6 C 31 % 1007,6 hPa 0,0 l/m 1,3 km/h (1 Bft) NO 1,00 h 0,000 mm 1,0 UV-I 686 W/m 5,6 C 23,6 C 3,0 km/h (1 Bft) 0,00 %
26.07.2015 18:00 23,4 C 33 % 1007,0 hPa 0,0 l/m 0,5 km/h (0 Bft) O 1,00 h 0,000 mm 1,0 UV-I 363 W/m 6,4 C 23,4 C 1,7 km/h (1 Bft) 0,00 %
26.07.2015 19:00 22,3 C 39 % 1006,6 hPa 0,0 l/m 1,4 km/h (1 Bft) O-SO 0,17 h 0,000 mm 1,0 UV-I 61 W/m 7,5 C 22,3 C 2,6 km/h (1 Bft) 0,00 %
26.07.2015 20:00 19,5 C 49 % 1006,3 hPa 0,0 l/m 0,0 km/h (0 Bft) N 0,00 h 0,000 mm 0,0 UV-I 3 W/m 8,6 C 19,5 C 0,3 km/h (0 Bft) 0,00 %
26.07.2015 21:00 17,0 C 59 % 1006,3 hPa 0,0 l/m 0,0 km/h (0 Bft) N 0,00 h 0,000 mm 0,0 UV-I 0 W/m 8,9 C 17,0 C 0,0 km/h (0 Bft) 0,00 %
26.07.2015 22:00 16,0 C 67 % 1006,0 hPa 0,0 l/m 0,0 km/h (0 Bft) N 0,00 h 0,000 mm 0,0 UV-I 0 W/m 9,9 C 16,0 C 0,0 km/h (0 Bft) 0,00 %
26.07.2015 23:00 15,6 C 71 % 1005,8 hPa 0,0 l/m 0,0 km/h (0 Bft) N 0,00 h 0,000 mm 0,0 UV-I 0 W/m 10,4 C 15,6 C 0,0 km/h (0 Bft) 0,00 %
Min-Datum _ 26.07.15 22.07.15 25.07.15 - 20.07.15 - - - - - 26.07.15 26.07.15 20.07.15 20.07.15
_ Min-Zeit 05:35 15:05 02:45 - 00:00 - - - - - 12:50 03:55 00:00 00:00
Minimum _ 11,8 C 24 % 1001,8 hPa - 0,0 km/h (0 Bft) - - - - - 4,5 C 11,2 C 0,0 km/h (0 Bft) 0,00 %
Max-Datum _ 22.07.15 20.07.15 26.07.15 25.07.15 23.07.15 - 20.07.15 20.07.15 20.07.15 25.07.15 24.07.15 22.07.15 23.07.15 20.07.15
_ Max-Zeit 16:05 04:00 05:30 19:05 12:30 - 08:40 00:00 13:10 12:50 21:15 16:05 12:30 00:00
Maximum _ 35,9 C 97 % 1017,4 hPa 2,7 l/m 14,0 km/h
SW (3 Bft)
- 0,08 h 0,000 mm 6,0 UV-I 1189 W/m 18,6 C 35,9 C 19,8 km/h
NW (3 Bft)
0,00 %
Durchschnitt _ 24,0 C 59 % 1009,9 hPa #9,6 l/m 1,3 km/h (1 Bft) W-SW #70:05 h #0,000 mm 2,4 UV-I 480 W/m 14,7 C 24,0 C 2,7 km/h (1 Bft) 0,00 %